sensor_id;sensor_type;location;lat;lon;timestamp;P1;durP1;ratioP1;P2;durP2;ratioP2
25980;SDS011;13772;52.996;9.124;2023-04-30T09:40:07;6.90;;;2.30;;
25980;SDS011;13772;52.996;9.124;2023-04-30T09:42:32;6.57;;;2.13;;
25980;SDS011;13772;52.996;9.124;2023-04-30T09:44:57;8.57;;;2.20;;
25980;SDS011;13772;52.996;9.124;2023-04-30T09:47:23;4.93;;;2.03;;
25980;SDS011;13772;52.996;9.124;2023-04-30T09:49:53;6.78;;;2.20;;
25980;SDS011;13772;52.996;9.124;2023-04-30T09:52:18;4.97;;;2.37;;
25980;SDS011;13772;52.996;9.124;2023-04-30T09:54:44;5.25;;;2.38;;
25980;SDS011;13772;52.996;9.124;2023-04-30T09:57:10;6.60;;;2.20;;
25980;SDS011;13772;52.996;9.124;2023-04-30T09:59:35;7.22;;;2.42;;
25980;SDS011;13772;52.996;9.124;2023-04-30T10:02:04;8.43;;;2.92;;
25980;SDS011;13772;52.996;9.124;2023-04-30T10:04:30;7.47;;;2.63;;
25980;SDS011;13772;52.996;9.124;2023-04-30T10:06:57;6.18;;;2.38;;
25980;SDS011;13772;52.996;9.124;2023-04-30T10:09:24;7.78;;;2.47;;
25980;SDS011;13772;52.996;9.124;2023-04-30T10:11:50;7.28;;;2.50;;
25980;SDS011;13772;52.996;9.124;2023-04-30T10:14:16;7.88;;;2.75;;
25980;SDS011;13772;52.996;9.124;2023-04-30T10:19:19;6.93;;;2.67;;
25980;SDS011;13772;52.996;9.124;2023-04-30T10:21:46;8.63;;;2.70;;
25980;SDS011;13772;52.996;9.124;2023-04-30T10:24:12;6.45;;;2.53;;
25980;SDS011;13772;52.996;9.124;2023-04-30T10:26:38;5.60;;;2.25;;
25980;SDS011;13772;52.996;9.124;2023-04-30T10:29:04;6.18;;;2.40;;
25980;SDS011;13772;52.996;9.124;2023-04-30T10:31:29;6.15;;;2.08;;
25980;SDS011;13772;52.996;9.124;2023-04-30T10:33:58;7.53;;;2.50;;
25980;SDS011;13772;52.996;9.124;2023-04-30T10:36:46;7.50;;;2.60;;
25980;SDS011;13772;52.996;9.124;2023-04-30T10:39:13;7.57;;;2.88;;
25980;SDS011;13772;52.996;9.124;2023-04-30T10:41:39;8.80;;;2.50;;
25980;SDS011;13772;52.996;9.124;2023-04-30T10:44:05;6.07;;;2.80;;
25980;SDS011;13772;52.996;9.124;2023-04-30T10:46:33;7.35;;;2.60;;
25980;SDS011;13772;52.996;9.124;2023-04-30T10:48:58;5.97;;;2.30;;
25980;SDS011;13772;52.996;9.124;2023-04-30T10:51:25;6.15;;;2.28;;
25980;SDS011;13772;52.996;9.124;2023-04-30T10:54:08;7.72;;;2.67;;
25980;SDS011;13772;52.996;9.124;2023-04-30T10:56:33;5.32;;;2.30;;
25980;SDS011;13772;52.996;9.124;2023-04-30T10:58:59;11.18;;;2.65;;
25980;SDS011;13772;52.996;9.124;2023-04-30T11:01:26;7.32;;;2.63;;
25980;SDS011;13772;52.996;9.124;2023-04-30T11:04:10;7.28;;;2.78;;
25980;SDS011;13772;52.996;9.124;2023-04-30T11:09:16;7.35;;;2.80;;
25980;SDS011;13772;52.996;9.124;2023-04-30T11:11:43;5.28;;;2.25;;
25980;SDS011;13772;52.996;9.124;2023-04-30T11:14:09;8.73;;;2.60;;
25980;SDS011;13772;52.996;9.124;2023-04-30T11:16:35;6.63;;;2.13;;
25980;SDS011;13772;52.996;9.124;2023-04-30T11:19:10;7.00;;;2.53;;
25980;SDS011;13772;52.996;9.124;2023-04-30T11:22:18;8.93;;;2.33;;
25980;SDS011;13772;52.996;9.124;2023-04-30T11:24:48;6.85;;;2.30;;
25980;SDS011;13772;52.996;9.124;2023-04-30T11:27:10;9.13;;;2.35;;
25980;SDS011;13772;52.996;9.124;2023-04-30T11:29:36;4.65;;;2.28;;
25980;SDS011;13772;52.996;9.124;2023-04-30T11:32:03;7.38;;;2.47;;
25980;SDS011;13772;52.996;9.124;2023-04-30T11:34:28;5.78;;;2.55;;
25980;SDS011;13772;52.996;9.124;2023-04-30T11:36:54;6.68;;;2.15;;
25980;SDS011;13772;52.996;9.124;2023-04-30T11:39:22;5.27;;;2.20;;
25980;SDS011;13772;52.996;9.124;2023-04-30T11:41:48;4.93;;;2.05;;
25980;SDS011;13772;52.996;9.124;2023-04-30T11:44:24;5.13;;;2.33;;
25980;SDS011;13772;52.996;9.124;2023-04-30T11:46:50;8.88;;;2.63;;
25980;SDS011;13772;52.996;9.124;2023-04-30T11:49:15;5.43;;;2.17;;
25980;SDS011;13772;52.996;9.124;2023-04-30T11:51:40;5.32;;;2.40;;
25980;SDS011;13772;52.996;9.124;2023-04-30T11:54:06;4.17;;;2.23;;
25980;SDS011;13772;52.996;9.124;2023-04-30T11:56:32;5.90;;;1.88;;
25980;SDS011;13772;52.996;9.124;2023-04-30T11:59:01;7.53;;;2.42;;
25980;SDS011;13772;52.996;9.124;2023-04-30T12:01:33;8.18;;;2.65;;
25980;SDS011;13772;52.996;9.124;2023-04-30T12:03:58;6.57;;;2.70;;
25980;SDS011;13772;52.996;9.124;2023-04-30T12:06:25;6.47;;;2.55;;
25980;SDS011;13772;52.996;9.124;2023-04-30T12:09:00;7.63;;;2.40;;
25980;SDS011;13772;52.996;9.124;2023-04-30T12:11:29;8.15;;;2.38;;
25980;SDS011;13772;52.996;9.124;2023-04-30T12:14:01;5.63;;;2.13;;
25980;SDS011;13772;52.996;9.124;2023-04-30T12:16:27;5.45;;;2.03;;
25980;SDS011;13772;52.996;9.124;2023-04-30T12:18:53;5.57;;;2.33;;
25980;SDS011;13772;52.996;9.124;2023-04-30T12:21:20;5.68;;;2.15;;
25980;SDS011;13772;52.996;9.124;2023-04-30T12:23:45;6.03;;;2.42;;
25980;SDS011;13772;52.996;9.124;2023-04-30T12:26:11;6.65;;;2.35;;
25980;SDS011;13772;52.996;9.124;2023-04-30T12:28:36;5.95;;;2.10;;
25980;SDS011;13772;52.996;9.124;2023-04-30T12:31:01;9.80;;;2.27;;
25980;SDS011;13772;52.996;9.124;2023-04-30T12:33:30;6.57;;;2.20;;
25980;SDS011;13772;52.996;9.124;2023-04-30T12:35:55;7.60;;;2.40;;
25980;SDS011;13772;52.996;9.124;2023-04-30T12:38:22;9.07;;;2.25;;
25980;SDS011;13772;52.996;9.124;2023-04-30T12:40:47;6.60;;;2.40;;
25980;SDS011;13772;52.996;9.124;2023-04-30T12:43:14;7.22;;;2.42;;
25980;SDS011;13772;52.996;9.124;2023-04-30T12:48:11;5.57;;;1.92;;
25980;SDS011;13772;52.996;9.124;2023-04-30T12:50:36;5.00;;;2.03;;
25980;SDS011;13772;52.996;9.124;2023-04-30T12:53:03;6.97;;;2.38;;
25980;SDS011;13772;52.996;9.124;2023-04-30T12:55:29;6.10;;;2.20;;
25980;SDS011;13772;52.996;9.124;2023-04-30T12:58:01;8.13;;;2.00;;
25980;SDS011;13772;52.996;9.124;2023-04-30T13:00:26;4.80;;;1.58;;
25980;SDS011;13772;52.996;9.124;2023-04-30T13:02:51;5.60;;;1.80;;
25980;SDS011;13772;52.996;9.124;2023-04-30T13:05:17;9.27;;;1.93;;
25980;SDS011;13772;52.996;9.124;2023-04-30T13:07:42;6.57;;;1.70;;
25980;SDS011;13772;52.996;9.124;2023-04-30T13:10:08;4.20;;;1.63;;
25980;SDS011;13772;52.996;9.124;2023-04-30T13:12:33;5.78;;;1.80;;
25980;SDS011;13772;52.996;9.124;2023-04-30T13:14:58;4.77;;;1.70;;
25980;SDS011;13772;52.996;9.124;2023-04-30T13:17:24;9.38;;;2.30;;
25980;SDS011;13772;52.996;9.124;2023-04-30T13:19:50;6.07;;;1.98;;
25980;SDS011;13772;52.996;9.124;2023-04-30T13:22:15;5.07;;;1.67;;
25980;SDS011;13772;52.996;9.124;2023-04-30T13:24:40;4.77;;;1.73;;
25980;SDS011;13772;52.996;9.124;2023-04-30T13:27:05;6.93;;;2.05;;
25980;SDS011;13772;52.996;9.124;2023-04-30T13:29:31;5.28;;;2.00;;
25980;SDS011;13772;52.996;9.124;2023-04-30T13:31:56;5.90;;;2.15;;
25980;SDS011;13772;52.996;9.124;2023-04-30T13:34:22;7.03;;;2.20;;
25980;SDS011;13772;52.996;9.124;2023-04-30T13:36:47;5.03;;;1.95;;
25980;SDS011;13772;52.996;9.124;2023-04-30T13:39:12;5.63;;;1.90;;
25980;SDS011;13772;52.996;9.124;2023-04-30T13:41:37;8.00;;;2.40;;
25980;SDS011;13772;52.996;9.124;2023-04-30T13:44:03;4.83;;;1.87;;
25980;SDS011;13772;52.996;9.124;2023-04-30T13:46:28;6.18;;;1.92;;
25980;SDS011;13772;52.996;9.124;2023-04-30T13:48:54;6.63;;;2.13;;
25980;SDS011;13772;52.996;9.124;2023-04-30T13:51:20;5.57;;;1.98;;
25980;SDS011;13772;52.996;9.124;2023-04-30T13:53:45;4.57;;;1.90;;
25980;SDS011;13772;52.996;9.124;2023-04-30T13:56:10;5.63;;;2.13;;
25980;SDS011;13772;52.996;9.124;2023-04-30T13:58:36;7.07;;;2.10;;
25980;SDS011;13772;52.996;9.124;2023-04-30T14:01:01;6.63;;;1.70;;
25980;SDS011;13772;52.996;9.124;2023-04-30T14:03:26;5.25;;;1.77;;
25980;SDS011;13772;52.996;9.124;2023-04-30T14:05:51;3.95;;;1.70;;
25980;SDS011;13772;52.996;9.124;2023-04-30T14:08:18;5.60;;;1.80;;
25980;SDS011;13772;52.996;9.124;2023-04-30T14:10:43;4.10;;;1.90;;
25980;SDS011;13772;52.996;9.124;2023-04-30T14:13:08;4.67;;;1.77;;
25980;SDS011;13772;52.996;9.124;2023-04-30T14:15:34;4.80;;;1.83;;
25980;SDS011;13772;52.996;9.124;2023-04-30T14:17:59;5.72;;;1.60;;
25980;SDS011;13772;52.996;9.124;2023-04-30T14:20:25;4.28;;;1.63;;
25980;SDS011;13772;52.996;9.124;2023-04-30T14:22:51;4.72;;;1.80;;
25980;SDS011;13772;52.996;9.124;2023-04-30T14:25:17;5.93;;;1.55;;
25980;SDS011;13772;52.996;9.124;2023-04-30T14:27:42;4.30;;;1.60;;
25980;SDS011;13772;52.996;9.124;2023-04-30T14:30:07;4.63;;;1.50;;
25980;SDS011;13772;52.996;9.124;2023-04-30T14:32:33;5.32;;;1.70;;
25980;SDS011;13772;52.996;9.124;2023-04-30T14:34:58;6.33;;;1.77;;
25980;SDS011;13772;52.996;9.124;2023-04-30T14:37:23;3.33;;;1.40;;
25980;SDS011;13772;52.996;9.124;2023-04-30T14:39:49;5.78;;;1.77;;
25980;SDS011;13772;52.996;9.124;2023-04-30T14:42:14;4.32;;;1.63;;
25980;SDS011;13772;52.996;9.124;2023-04-30T14:44:39;3.50;;;1.75;;
25980;SDS011;13772;52.996;9.124;2023-04-30T14:47:05;8.67;;;2.10;;
25980;SDS011;13772;52.996;9.124;2023-04-30T14:49:30;5.47;;;1.80;;
25980;SDS011;13772;52.996;9.124;2023-04-30T14:51:56;4.32;;;1.80;;
25980;SDS011;13772;52.996;9.124;2023-04-30T14:54:21;4.10;;;1.80;;
25980;SDS011;13772;52.996;9.124;2023-04-30T14:56:47;6.03;;;2.15;;
25980;SDS011;13772;52.996;9.124;2023-04-30T14:59:12;4.85;;;2.10;;
25980;SDS011;13772;52.996;9.124;2023-04-30T15:01:37;5.57;;;1.90;;
25980;SDS011;13772;52.996;9.124;2023-04-30T15:04:03;4.82;;;1.38;;
25980;SDS011;13772;52.996;9.124;2023-04-30T15:06:28;4.43;;;2.00;;
25980;SDS011;13772;52.996;9.124;2023-04-30T15:08:53;4.45;;;1.73;;
25980;SDS011;13772;52.996;9.124;2023-04-30T15:11:19;5.28;;;1.80;;
25980;SDS011;13772;52.996;9.124;2023-04-30T15:13:44;5.00;;;1.77;;
25980;SDS011;13772;52.996;9.124;2023-04-30T15:16:09;4.80;;;1.75;;
25980;SDS011;13772;52.996;9.124;2023-04-30T15:18:35;4.85;;;1.95;;
25980;SDS011;13772;52.996;9.124;2023-04-30T15:21:01;3.92;;;1.50;;
25980;SDS011;13772;52.996;9.124;2023-04-30T15:23:26;4.85;;;1.90;;
25980;SDS011;13772;52.996;9.124;2023-04-30T15:25:51;7.88;;;1.77;;
25980;SDS011;13772;52.996;9.124;2023-04-30T15:28:17;4.85;;;2.00;;
25980;SDS011;13772;52.996;9.124;2023-04-30T15:30:43;8.38;;;2.05;;
25980;SDS011;13772;52.996;9.124;2023-04-30T15:33:08;7.13;;;2.10;;
25980;SDS011;13772;52.996;9.124;2023-04-30T15:35:33;7.27;;;2.40;;
25980;SDS011;13772;52.996;9.124;2023-04-30T15:37:58;7.13;;;2.40;;
25980;SDS011;13772;52.996;9.124;2023-04-30T15:40:23;9.97;;;2.10;;
25980;SDS011;13772;52.996;9.124;2023-04-30T15:42:49;6.40;;;2.35;;
25980;SDS011;13772;52.996;9.124;2023-04-30T15:45:14;4.65;;;2.00;;
25980;SDS011;13772;52.996;9.124;2023-04-30T15:47:40;4.38;;;1.95;;
25980;SDS011;13772;52.996;9.124;2023-04-30T15:50:05;5.10;;;1.58;;
25980;SDS011;13772;52.996;9.124;2023-04-30T15:52:31;7.53;;;2.05;;
25980;SDS011;13772;52.996;9.124;2023-04-30T15:54:56;5.00;;;1.95;;
25980;SDS011;13772;52.996;9.124;2023-04-30T15:57:22;8.90;;;2.30;;
25980;SDS011;13772;52.996;9.124;2023-04-30T15:59:47;5.55;;;2.00;;
25980;SDS011;13772;52.996;9.124;2023-04-30T16:02:12;4.85;;;2.25;;
25980;SDS011;13772;52.996;9.124;2023-04-30T16:04:37;8.53;;;2.27;;
25980;SDS011;13772;52.996;9.124;2023-04-30T16:07:02;8.38;;;1.80;;
25980;SDS011;13772;52.996;9.124;2023-04-30T16:09:29;7.70;;;2.10;;
25980;SDS011;13772;52.996;9.124;2023-04-30T16:11:54;6.65;;;2.00;;
25980;SDS011;13772;52.996;9.124;2023-04-30T16:14:19;5.38;;;2.00;;
25980;SDS011;13772;52.996;9.124;2023-04-30T16:16:45;5.90;;;2.10;;
25980;SDS011;13772;52.996;9.124;2023-04-30T16:19:10;5.90;;;2.20;;
25980;SDS011;13772;52.996;9.124;2023-04-30T16:21:36;5.60;;;2.42;;
25980;SDS011;13772;52.996;9.124;2023-04-30T16:24:03;5.25;;;2.08;;
25980;SDS011;13772;52.996;9.124;2023-04-30T16:26:28;5.57;;;1.92;;
25980;SDS011;13772;52.996;9.124;2023-04-30T16:28:53;5.85;;;1.83;;
25980;SDS011;13772;52.996;9.124;2023-04-30T16:31:18;9.18;;;2.20;;
25980;SDS011;13772;52.996;9.124;2023-04-30T16:33:46;7.90;;;1.70;;
25980;SDS011;13772;52.996;9.124;2023-04-30T16:36:11;7.97;;;2.33;;
25980;SDS011;13772;52.996;9.124;2023-04-30T16:38:37;5.47;;;1.80;;
25980;SDS011;13772;52.996;9.124;2023-04-30T16:41:02;7.28;;;1.75;;
25980;SDS011;13772;52.996;9.124;2023-04-30T16:43:27;4.72;;;1.90;;
25980;SDS011;13772;52.996;9.124;2023-04-30T16:45:52;4.65;;;1.90;;
25980;SDS011;13772;52.996;9.124;2023-04-30T16:48:17;6.65;;;1.77;;
25980;SDS011;13772;52.996;9.124;2023-04-30T16:50:43;5.10;;;1.67;;
25980;SDS011;13772;52.996;9.124;2023-04-30T16:53:08;8.90;;;1.95;;
25980;SDS011;13772;52.996;9.124;2023-04-30T16:55:33;7.28;;;2.08;;
25980;SDS011;13772;52.996;9.124;2023-04-30T16:57:58;5.30;;;1.65;;
25980;SDS011;13772;52.996;9.124;2023-04-30T17:00:24;5.78;;;1.50;;
25980;SDS011;13772;52.996;9.124;2023-04-30T17:02:49;6.40;;;2.00;;
25980;SDS011;13772;52.996;9.124;2023-04-30T17:05:16;7.70;;;2.53;;
25980;SDS011;13772;52.996;9.124;2023-04-30T17:07:42;6.40;;;2.33;;
25980;SDS011;13772;52.996;9.124;2023-04-30T17:10:08;8.30;;;2.00;;
25980;SDS011;13772;52.996;9.124;2023-04-30T17:12:33;5.22;;;1.77;;
25980;SDS011;13772;52.996;9.124;2023-04-30T17:14:59;6.95;;;1.75;;
25980;SDS011;13772;52.996;9.124;2023-04-30T17:17:24;7.43;;;1.98;;
25980;SDS011;13772;52.996;9.124;2023-04-30T17:19:49;4.43;;;1.70;;
25980;SDS011;13772;52.996;9.124;2023-04-30T17:22:14;5.45;;;2.00;;
25980;SDS011;13772;52.996;9.124;2023-04-30T17:24:43;8.50;;;1.77;;
25980;SDS011;13772;52.996;9.124;2023-04-30T17:27:08;5.60;;;2.03;;
25980;SDS011;13772;52.996;9.124;2023-04-30T17:29:34;5.18;;;1.52;;
25980;SDS011;13772;52.996;9.124;2023-04-30T17:31:59;7.43;;;2.00;;
25980;SDS011;13772;52.996;9.124;2023-04-30T17:34:24;6.25;;;1.52;;
25980;SDS011;13772;52.996;9.124;2023-04-30T17:36:51;4.65;;;1.88;;
25980;SDS011;13772;52.996;9.124;2023-04-30T17:39:16;5.85;;;1.83;;
25980;SDS011;13772;52.996;9.124;2023-04-30T17:41:42;7.00;;;1.92;;
25980;SDS011;13772;52.996;9.124;2023-04-30T17:44:08;4.22;;;1.52;;
25980;SDS011;13772;52.996;9.124;2023-04-30T17:46:33;5.65;;;1.95;;
25980;SDS011;13772;52.996;9.124;2023-04-30T17:48:58;5.15;;;1.95;;
25980;SDS011;13772;52.996;9.124;2023-04-30T17:53:53;5.72;;;2.22;;
25980;SDS011;13772;52.996;9.124;2023-04-30T17:56:19;6.20;;;1.90;;
25980;SDS011;13772;52.996;9.124;2023-04-30T17:58:44;6.35;;;1.63;;
25980;SDS011;13772;52.996;9.124;2023-04-30T18:01:10;5.07;;;1.65;;
25980;SDS011;13772;52.996;9.124;2023-04-30T18:03:35;4.70;;;1.77;;
25980;SDS011;13772;52.996;9.124;2023-04-30T18:06:01;7.93;;;2.03;;
25980;SDS011;13772;52.996;9.124;2023-04-30T18:08:26;6.93;;;1.90;;
25980;SDS011;13772;52.996;9.124;2023-04-30T18:10:51;5.60;;;1.60;;
25980;SDS011;13772;52.996;9.124;2023-04-30T18:13:17;4.65;;;1.48;;
25980;SDS011;13772;52.996;9.124;2023-04-30T18:15:42;7.10;;;1.70;;
25980;SDS011;13772;52.996;9.124;2023-04-30T18:18:07;10.02;;;2.08;;
25980;SDS011;13772;52.996;9.124;2023-04-30T18:20:33;7.53;;;1.77;;
25980;SDS011;13772;52.996;9.124;2023-04-30T18:22:58;5.82;;;1.42;;
25980;SDS011;13772;52.996;9.124;2023-04-30T18:25:24;7.28;;;2.20;;
25980;SDS011;13772;52.996;9.124;2023-04-30T18:27:49;5.50;;;1.83;;
25980;SDS011;13772;52.996;9.124;2023-04-30T18:30:15;3.92;;;1.73;;
25980;SDS011;13772;52.996;9.124;2023-04-30T18:32:40;5.97;;;1.67;;
25980;SDS011;13772;52.996;9.124;2023-04-30T18:35:08;4.90;;;1.52;;
25980;SDS011;13772;52.996;9.124;2023-04-30T18:37:33;8.90;;;1.83;;
25980;SDS011;13772;52.996;9.124;2023-04-30T18:39:58;12.40;;;2.45;;
25980;SDS011;13772;52.996;9.124;2023-04-30T18:42:24;5.40;;;2.15;;
25980;SDS011;13772;52.996;9.124;2023-04-30T18:44:49;4.82;;;2.00;;
25980;SDS011;13772;52.996;9.124;2023-04-30T18:47:15;5.22;;;2.20;;
25980;SDS011;13772;52.996;9.124;2023-04-30T18:49:41;7.07;;;1.90;;
25980;SDS011;13772;52.996;9.124;2023-04-30T18:52:06;5.15;;;1.88;;
25980;SDS011;13772;52.996;9.124;2023-04-30T18:54:32;6.35;;;2.45;;
25980;SDS011;13772;52.996;9.124;2023-04-30T18:56:57;6.93;;;1.95;;
25980;SDS011;13772;52.996;9.124;2023-04-30T18:59:23;4.55;;;2.08;;
25980;SDS011;13772;52.996;9.124;2023-04-30T19:01:48;5.95;;;2.10;;
25980;SDS011;13772;52.996;9.124;2023-04-30T19:04:14;4.10;;;2.03;;
25980;SDS011;13772;52.996;9.124;2023-04-30T19:06:40;5.55;;;2.28;;
25980;SDS011;13772;52.996;9.124;2023-04-30T19:09:06;6.13;;;2.35;;
25980;SDS011;13772;52.996;9.124;2023-04-30T19:11:33;8.15;;;2.03;;
25980;SDS011;13772;52.996;9.124;2023-04-30T19:13:59;4.25;;;1.58;;
25980;SDS011;13772;52.996;9.124;2023-04-30T19:16:25;5.93;;;1.85;;
25980;SDS011;13772;52.996;9.124;2023-04-30T19:18:50;8.95;;;1.88;;
25980;SDS011;13772;52.996;9.124;2023-04-30T19:21:15;7.40;;;2.30;;
25980;SDS011;13772;52.996;9.124;2023-04-30T19:23:40;7.72;;;1.90;;
25980;SDS011;13772;52.996;9.124;2023-04-30T19:26:06;9.10;;;2.25;;
25980;SDS011;13772;52.996;9.124;2023-04-30T19:28:31;6.75;;;2.50;;
25980;SDS011;13772;52.996;9.124;2023-04-30T19:30:56;8.70;;;2.40;;
25980;SDS011;13772;52.996;9.124;2023-04-30T19:33:22;5.68;;;2.40;;
25980;SDS011;13772;52.996;9.124;2023-04-30T19:35:48;8.70;;;2.60;;
25980;SDS011;13772;52.996;9.124;2023-04-30T19:38:14;10.55;;;2.63;;
25980;SDS011;13772;52.996;9.124;2023-04-30T19:40:44;7.32;;;1.98;;
25980;SDS011;13772;52.996;9.124;2023-04-30T19:43:10;5.47;;;2.17;;
25980;SDS011;13772;52.996;9.124;2023-04-30T19:45:36;11.73;;;1.90;;
25980;SDS011;13772;52.996;9.124;2023-04-30T19:48:01;5.75;;;2.50;;
25980;SDS011;13772;52.996;9.124;2023-04-30T19:50:26;8.07;;;2.30;;
25980;SDS011;13772;52.996;9.124;2023-04-30T19:52:52;7.45;;;3.10;;
25980;SDS011;13772;52.996;9.124;2023-04-30T19:55:17;8.30;;;2.78;;
25980;SDS011;13772;52.996;9.124;2023-04-30T19:57:42;8.50;;;3.95;;
25980;SDS011;13772;52.996;9.124;2023-04-30T20:00:07;8.60;;;3.88;;
25980;SDS011;13772;52.996;9.124;2023-04-30T20:02:33;7.10;;;3.58;;
25980;SDS011;13772;52.996;9.124;2023-04-30T20:04:58;8.10;;;3.63;;
25980;SDS011;13772;52.996;9.124;2023-04-30T20:07:23;10.98;;;3.38;;
25980;SDS011;13772;52.996;9.124;2023-04-30T20:09:49;9.23;;;3.28;;
25980;SDS011;13772;52.996;9.124;2023-04-30T20:12:14;5.57;;;3.35;;
25980;SDS011;13772;52.996;9.124;2023-04-30T20:14:39;6.25;;;3.10;;
25980;SDS011;13772;52.996;9.124;2023-04-30T20:17:04;6.55;;;3.28;;
25980;SDS011;13772;52.996;9.124;2023-04-30T20:19:30;8.05;;;3.10;;
25980;SDS011;13772;52.996;9.124;2023-04-30T20:21:57;7.35;;;2.53;;
25980;SDS011;13772;52.996;9.124;2023-04-30T20:24:22;6.90;;;2.70;;
25980;SDS011;13772;52.996;9.124;2023-04-30T20:26:48;9.48;;;3.22;;
25980;SDS011;13772;52.996;9.124;2023-04-30T20:29:13;7.15;;;2.60;;
25980;SDS011;13772;52.996;9.124;2023-04-30T20:31:39;8.35;;;2.75;;
25980;SDS011;13772;52.996;9.124;2023-04-30T20:34:04;8.43;;;3.60;;
25980;SDS011;13772;52.996;9.124;2023-04-30T20:36:29;6.68;;;3.13;;
25980;SDS011;13772;52.996;9.124;2023-04-30T20:38:56;6.55;;;2.78;;
25980;SDS011;13772;52.996;9.124;2023-04-30T20:41:23;11.40;;;2.92;;
25980;SDS011;13772;52.996;9.124;2023-04-30T20:43:48;6.88;;;3.13;;
25980;SDS011;13772;52.996;9.124;2023-04-30T20:46:13;8.52;;;3.00;;
25980;SDS011;13772;52.996;9.124;2023-04-30T20:48:40;8.88;;;3.00;;
25980;SDS011;13772;52.996;9.124;2023-04-30T20:51:05;8.40;;;3.17;;
25980;SDS011;13772;52.996;9.124;2023-04-30T20:53:30;5.72;;;2.80;;
25980;SDS011;13772;52.996;9.124;2023-04-30T20:55:55;9.57;;;3.17;;
25980;SDS011;13772;52.996;9.124;2023-04-30T20:58:24;8.13;;;2.80;;
25980;SDS011;13772;52.996;9.124;2023-04-30T21:00:49;7.13;;;3.20;;
25980;SDS011;13772;52.996;9.124;2023-04-30T21:03:14;10.57;;;2.80;;
25980;SDS011;13772;52.996;9.124;2023-04-30T21:05:40;10.23;;;3.30;;
25980;SDS011;13772;52.996;9.124;2023-04-30T21:08:06;6.10;;;3.10;;
25980;SDS011;13772;52.996;9.124;2023-04-30T21:10:32;6.07;;;2.88;;
25980;SDS011;13772;52.996;9.124;2023-04-30T21:12:59;7.78;;;2.85;;
25980;SDS011;13772;52.996;9.124;2023-04-30T21:15:24;6.65;;;2.67;;
25980;SDS011;13772;52.996;9.124;2023-04-30T21:17:49;6.88;;;3.10;;
25980;SDS011;13772;52.996;9.124;2023-04-30T21:20:15;7.50;;;2.85;;
25980;SDS011;13772;52.996;9.124;2023-04-30T21:22:40;6.93;;;2.50;;
25980;SDS011;13772;52.996;9.124;2023-04-30T21:25:06;4.80;;;2.35;;
25980;SDS011;13772;52.996;9.124;2023-04-30T21:27:31;4.38;;;2.30;;
25980;SDS011;13772;52.996;9.124;2023-04-30T21:29:56;9.05;;;3.10;;
